sensor_id;sensor_type;location;lat;lon;timestamp;pressure;altitude;pressure_sealevel;temperature;humidity
69911;BME280;63555;49.920;17.868;2022-11-15T00:01:15;98982.66;;;-1.20;82.92
69911;BME280;63555;49.920;17.868;2022-11-15T00:03:42;98975.78;;;-1.21;82.94
69911;BME280;63555;49.920;17.868;2022-11-15T00:06:08;98970.66;;;-1.22;82.74
69911;BME280;63555;49.920;17.868;2022-11-15T00:08:34;98974.97;;;-1.23;82.27
69911;BME280;63555;49.920;17.868;2022-11-15T00:11:01;98975.91;;;-1.25;82.42
69911;BME280;63555;49.920;17.868;2022-11-15T00:13:27;98971.63;;;-1.26;82.83
69911;BME280;63555;49.920;17.868;2022-11-15T00:15:52;98965.63;;;-1.29;82.76
69911;BME280;63555;49.920;17.868;2022-11-15T00:18:18;98969.97;;;-1.29;82.27
69911;BME280;63555;49.920;17.868;2022-11-15T00:20:44;98960.50;;;-1.30;82.43
69911;BME280;63555;49.920;17.868;2022-11-15T00:23:10;98963.09;;;-1.30;83.06
69911;BME280;63555;49.920;17.868;2022-11-15T00:25:35;98962.22;;;-1.31;82.90
69911;BME280;63555;49.920;17.868;2022-11-15T00:28:01;98960.50;;;-1.30;82.69
69911;BME280;63555;49.920;17.868;2022-11-15T00:30:27;98968.91;;;-1.22;83.93
69911;BME280;63555;49.920;17.868;2022-11-15T00:32:52;98959.41;;;-1.21;83.56
69911;BME280;63555;49.920;17.868;2022-11-15T00:35:18;98959.41;;;-1.21;83.21
69911;BME280;63555;49.920;17.868;2022-11-15T00:37:44;98956.03;;;-1.23;83.05
69911;BME280;63555;49.920;17.868;2022-11-15T00:40:11;98950.03;;;-1.25;82.49
69911;BME280;63555;49.920;17.868;2022-11-15T00:42:40;98944.91;;;-1.27;82.98
69911;BME280;63555;49.920;17.868;2022-11-15T00:45:05;98948.41;;;-1.30;82.67
69911;BME280;63555;49.920;17.868;2022-11-15T00:47:31;98945.88;;;-1.31;82.92
69911;BME280;63555;49.920;17.868;2022-11-15T00:49:56;98943.31;;;-1.33;83.00
69911;BME280;63555;49.920;17.868;2022-11-15T00:52:22;98943.34;;;-1.34;83.18
69911;BME280;63555;49.920;17.868;2022-11-15T00:54:47;98941.66;;;-1.35;82.61
69911;BME280;63555;49.920;17.868;2022-11-15T00:57:13;98933.91;;;-1.35;83.15
69911;BME280;63555;49.920;17.868;2022-11-15T00:59:39;98933.84;;;-1.34;83.14
69911;BME280;63555;49.920;17.868;2022-11-15T01:02:04;98933.00;;;-1.34;83.34
69911;BME280;63555;49.920;17.868;2022-11-15T01:04:29;98929.53;;;-1.33;83.07
69911;BME280;63555;49.920;17.868;2022-11-15T01:06:55;98914.91;;;-1.34;83.05
69911;BME280;63555;49.920;17.868;2022-11-15T01:09:20;98925.25;;;-1.34;82.89
69911;BME280;63555;49.920;17.868;2022-11-15T01:11:45;98912.34;;;-1.36;82.76
69911;BME280;63555;49.920;17.868;2022-11-15T01:14:11;98915.78;;;-1.35;83.04
69911;BME280;63555;49.920;17.868;2022-11-15T01:16:36;98919.31;;;-1.38;82.94
69911;BME280;63555;49.920;17.868;2022-11-15T01:19:02;98911.63;;;-1.41;82.78
69911;BME280;63555;49.920;17.868;2022-11-15T01:21:27;98910.81;;;-1.43;82.87
69911;BME280;63555;49.920;17.868;2022-11-15T01:23:56;98914.28;;;-1.44;82.59
69911;BME280;63555;49.920;17.868;2022-11-15T01:26:23;98918.66;;;-1.46;83.25
69911;BME280;63555;49.920;17.868;2022-11-15T01:28:48;98909.19;;;-1.47;83.07
69911;BME280;63555;49.920;17.868;2022-11-15T01:31:16;98915.22;;;-1.46;83.10
69911;BME280;63555;49.920;17.868;2022-11-15T01:33:42;98913.50;;;-1.47;82.85
69911;BME280;63555;49.920;17.868;2022-11-15T01:36:11;98909.19;;;-1.47;83.29
69911;BME280;63555;49.920;17.868;2022-11-15T01:38:37;98907.44;;;-1.46;83.37
69911;BME280;63555;49.920;17.868;2022-11-15T01:41:03;98900.53;;;-1.46;83.47
69911;BME280;63555;49.920;17.868;2022-11-15T01:43:31;98902.28;;;-1.46;83.10
69911;BME280;63555;49.920;17.868;2022-11-15T01:46:02;98900.63;;;-1.49;83.00
69911;BME280;63555;49.920;17.868;2022-11-15T01:48:34;98894.63;;;-1.51;83.35
69911;BME280;63555;49.920;17.868;2022-11-15T01:51:01;98890.41;;;-1.53;83.18
69911;BME280;63555;49.920;17.868;2022-11-15T01:53:28;98879.25;;;-1.55;82.77
69911;BME280;63555;49.920;17.868;2022-11-15T01:55:55;98875.81;;;-1.56;83.22
69911;BME280;63555;49.920;17.868;2022-11-15T01:58:21;98887.06;;;-1.58;83.30
69911;BME280;63555;49.920;17.868;2022-11-15T02:00:47;98881.91;;;-1.58;83.62
69911;BME280;63555;49.920;17.868;2022-11-15T02:03:14;98871.56;;;-1.58;83.11
69911;BME280;63555;49.920;17.868;2022-11-15T02:05:41;98870.66;;;-1.57;83.42
69911;BME280;63555;49.920;17.868;2022-11-15T02:08:07;98878.47;;;-1.59;83.32
69911;BME280;63555;49.920;17.868;2022-11-15T02:10:33;98877.59;;;-1.58;83.54
69911;BME280;63555;49.920;17.868;2022-11-15T02:13:00;98864.66;;;-1.58;83.61
69911;BME280;63555;49.920;17.868;2022-11-15T02:15:31;98858.59;;;-1.57;83.77
69911;BME280;63555;49.920;17.868;2022-11-15T02:29:32;98849.09;;;-1.56;83.61
69911;BME280;63555;49.920;17.868;2022-11-15T02:37:52;98847.41;;;-1.57;83.10
69911;BME280;63555;49.920;17.868;2022-11-15T02:40:36;98844.81;;;-1.57;83.31
69911;BME280;63555;49.920;17.868;2022-11-15T02:43:09;98843.97;;;-1.58;83.43
69911;BME280;63555;49.920;17.868;2022-11-15T02:46:03;98836.22;;;-1.58;83.28
69911;BME280;63555;49.920;17.868;2022-11-15T02:48:32;98827.56;;;-1.57;83.16
69911;BME280;63555;49.920;17.868;2022-11-15T02:50:59;98830.16;;;-1.57;83.20
69911;BME280;63555;49.920;17.868;2022-11-15T02:53:25;98827.53;;;-1.55;83.53
69911;BME280;63555;49.920;17.868;2022-11-15T02:55:52;98825.78;;;-1.55;83.37
69911;BME280;63555;49.920;17.868;2022-11-15T03:01:27;98823.31;;;-1.59;83.39
69911;BME280;63555;49.920;17.868;2022-11-15T03:04:27;98812.19;;;-1.62;83.04
69911;BME280;63555;49.920;17.868;2022-11-15T03:07:06;98809.66;;;-1.65;83.40
69911;BME280;63555;49.920;17.868;2022-11-15T03:09:50;98823.44;;;-1.64;83.29
69911;BME280;63555;49.920;17.868;2022-11-15T03:12:30;98815.72;;;-1.66;82.91
69911;BME280;63555;49.920;17.868;2022-11-15T03:38:34;98797.88;;;-1.76;83.28
69911;BME280;63555;49.920;17.868;2022-11-15T03:41:04;98792.72;;;-1.76;83.51
69911;BME280;63555;49.920;17.868;2022-11-15T03:43:41;98798.72;;;-1.76;83.22
69911;BME280;63555;49.920;17.868;2022-11-15T03:46:31;98794.44;;;-1.77;83.42
69911;BME280;63555;49.920;17.868;2022-11-15T03:49:07;98801.34;;;-1.77;83.40
69911;BME280;63555;49.920;17.868;2022-11-15T03:51:34;98797.91;;;-1.78;83.60
69911;BME280;63555;49.920;17.868;2022-11-15T03:54:03;98795.34;;;-1.78;83.33
69911;BME280;63555;49.920;17.868;2022-11-15T03:56:28;98785.00;;;-1.78;83.60
69911;BME280;63555;49.920;17.868;2022-11-15T03:58:54;98778.13;;;-1.79;83.37
69911;BME280;63555;49.920;17.868;2022-11-15T04:01:19;98774.69;;;-1.79;83.14
69911;BME280;63555;49.920;17.868;2022-11-15T04:03:44;98766.13;;;-1.81;83.06
69911;BME280;63555;49.920;17.868;2022-11-15T04:06:10;98774.72;;;-1.81;83.23
69911;BME280;63555;49.920;17.868;2022-11-15T04:08:35;98779.94;;;-1.82;83.40
69911;BME280;63555;49.920;17.868;2022-11-15T04:11:01;98768.78;;;-1.84;83.63
69911;BME280;63555;49.920;17.868;2022-11-15T04:13:26;98763.63;;;-1.84;83.45
69911;BME280;63555;49.920;17.868;2022-11-15T04:15:51;98762.78;;;-1.85;83.34
69911;BME280;63555;49.920;17.868;2022-11-15T04:18:17;98768.78;;;-1.84;83.65
69911;BME280;63555;49.920;17.868;2022-11-15T04:20:42;98761.03;;;-1.84;84.06
69911;BME280;63555;49.920;17.868;2022-11-15T04:23:26;98756.63;;;-1.81;83.72
69911;BME280;63555;49.920;17.868;2022-11-15T04:26:16;98754.03;;;-1.79;83.83
69911;BME280;63555;49.920;17.868;2022-11-15T04:28:42;98752.28;;;-1.79;84.03
69911;BME280;63555;49.920;17.868;2022-11-15T04:31:27;98755.72;;;-1.78;83.62
69911;BME280;63555;49.920;17.868;2022-11-15T04:33:53;98753.97;;;-1.78;83.72
69911;BME280;63555;49.920;17.868;2022-11-15T04:36:19;98750.59;;;-1.80;83.69
69911;BME280;63555;49.920;17.868;2022-11-15T04:39:03;98747.16;;;-1.80;83.79
69911;BME280;63555;49.920;17.868;2022-11-15T04:41:28;98736.84;;;-1.82;83.75
69911;BME280;63555;49.920;17.868;2022-11-15T04:43:54;98737.75;;;-1.83;83.68
69911;BME280;63555;49.920;17.868;2022-11-15T04:46:20;98733.47;;;-1.84;83.62
69911;BME280;63555;49.920;17.868;2022-11-15T04:48:45;98732.56;;;-1.83;83.62
69911;BME280;63555;49.920;17.868;2022-11-15T04:51:11;98733.44;;;-1.82;83.31
69911;BME280;63555;49.920;17.868;2022-11-15T04:53:36;98733.44;;;-1.82;83.74
69911;BME280;63555;49.920;17.868;2022-11-15T04:56:01;98734.28;;;-1.82;83.59
69911;BME280;63555;49.920;17.868;2022-11-15T04:58:27;98732.53;;;-1.81;83.88
69911;BME280;63555;49.920;17.868;2022-11-15T05:00:52;98735.09;;;-1.80;83.81
69911;BME280;63555;49.920;17.868;2022-11-15T05:03:17;98734.19;;;-1.79;83.95
69911;BME280;63555;49.920;17.868;2022-11-15T05:06:01;98729.03;;;-1.79;83.48
69911;BME280;63555;49.920;17.868;2022-11-15T05:08:27;98723.84;;;-1.79;83.68
69911;BME280;63555;49.920;17.868;2022-11-15T05:10:52;98728.13;;;-1.78;83.68
69911;BME280;63555;49.920;17.868;2022-11-15T05:13:18;98722.13;;;-1.78;83.84
69911;BME280;63555;49.920;17.868;2022-11-15T05:15:43;98721.31;;;-1.80;83.62
69911;BME280;63555;49.920;17.868;2022-11-15T05:18:09;98722.16;;;-1.80;83.76
69911;BME280;63555;49.920;17.868;2022-11-15T05:20:34;98725.63;;;-1.81;83.86
69911;BME280;63555;49.920;17.868;2022-11-15T05:23:00;98723.00;;;-1.79;83.66
69911;BME280;63555;49.920;17.868;2022-11-15T05:25:25;98726.44;;;-1.79;83.97
69911;BME280;63555;49.920;17.868;2022-11-15T05:27:51;98723.81;;;-1.77;83.63
69911;BME280;63555;49.920;17.868;2022-11-15T05:30:17;98716.00;;;-1.76;84.00
69911;BME280;63555;49.920;17.868;2022-11-15T05:39:25;98710.81;;;-1.74;83.72
69911;BME280;63555;49.920;17.868;2022-11-15T05:41:53;98711.69;;;-1.75;83.43
69911;BME280;63555;49.920;17.868;2022-11-15T05:44:22;98711.66;;;-1.72;83.96
69911;BME280;63555;49.920;17.868;2022-11-15T05:46:49;98710.78;;;-1.73;84.03
69911;BME280;63555;49.920;17.868;2022-11-15T05:49:18;98713.28;;;-1.70;83.80
69911;BME280;63555;49.920;17.868;2022-11-15T05:51:47;98714.09;;;-1.68;84.15
69911;BME280;63555;49.920;17.868;2022-11-15T05:54:14;98704.56;;;-1.66;83.80
69911;BME280;63555;49.920;17.868;2022-11-15T05:56:40;98708.84;;;-1.65;83.54
69911;BME280;63555;49.920;17.868;2022-11-15T05:59:07;98709.69;;;-1.64;83.87
69911;BME280;63555;49.920;17.868;2022-11-15T06:01:33;98710.53;;;-1.64;84.19
69911;BME280;63555;49.920;17.868;2022-11-15T06:03:59;98703.59;;;-1.62;83.77
69911;BME280;63555;49.920;17.868;2022-11-15T06:06:24;98705.28;;;-1.61;83.43
69911;BME280;63555;49.920;17.868;2022-11-15T06:08:49;98702.66;;;-1.59;83.56
69911;BME280;63555;49.920;17.868;2022-11-15T06:11:15;98700.00;;;-1.56;84.11
69911;BME280;63555;49.920;17.868;2022-11-15T06:13:40;98695.59;;;-1.52;83.28
69911;BME280;63555;49.920;17.868;2022-11-15T06:16:05;98696.34;;;-1.49;83.96
69911;BME280;63555;49.920;17.868;2022-11-15T06:18:33;98697.06;;;-1.44;84.00
69911;BME280;63555;49.920;17.868;2022-11-15T06:20:59;98693.50;;;-1.40;84.00
69911;BME280;63555;49.920;17.868;2022-11-15T06:23:25;98694.22;;;-1.35;83.96
69911;BME280;63555;49.920;17.868;2022-11-15T06:25:50;98694.91;;;-1.30;84.22
69911;BME280;63555;49.920;17.868;2022-11-15T06:28:16;98700.81;;;-1.24;84.33
69911;BME280;63555;49.920;17.868;2022-11-15T06:30:41;98698.88;;;-1.18;84.34
69911;BME280;63555;49.920;17.868;2022-11-15T06:33:06;98695.38;;;-1.15;84.18
69911;BME280;63555;49.920;17.868;2022-11-15T06:35:35;98701.19;;;-1.09;84.04
69911;BME280;63555;49.920;17.868;2022-11-15T06:38:05;98708.78;;;-1.03;84.14
69911;BME280;63555;49.920;17.868;2022-11-15T06:40:36;98701.69;;;-0.96;84.16
69911;BME280;63555;49.920;17.868;2022-11-15T06:43:03;98698.00;;;-0.89;84.47
69911;BME280;63555;49.920;17.868;2022-11-15T06:45:29;98688.34;;;-0.82;84.39
69911;BME280;63555;49.920;17.868;2022-11-15T06:47:54;98692.44;;;-0.75;84.58
69911;BME280;63555;49.920;17.868;2022-11-15T06:50:20;98691.25;;;-0.65;84.62
69911;BME280;63555;49.920;17.868;2022-11-15T06:52:45;98691.00;;;-0.57;84.34
69911;BME280;63555;49.920;17.868;2022-11-15T06:55:11;98688.97;;;-0.48;84.23
69911;BME280;63555;49.920;17.868;2022-11-15T06:57:36;98686.13;;;-0.40;84.33
69911;BME280;63555;49.920;17.868;2022-11-15T07:00:05;98690.97;;;-0.29;84.08
69911;BME280;63555;49.920;17.868;2022-11-15T07:02:31;98690.69;;;-0.22;84.13
69911;BME280;63555;49.920;17.868;2022-11-15T07:04:56;98693.81;;;-0.12;84.43
69911;BME280;63555;49.920;17.868;2022-11-15T07:07:21;98702.13;;;-0.03;84.18
69911;BME280;63555;49.920;17.868;2022-11-15T07:09:47;98697.53;;;0.07;84.16
69911;BME280;63555;49.920;17.868;2022-11-15T07:12:12;98692.81;;;0.18;84.27
69911;BME280;63555;49.920;17.868;2022-11-15T07:14:37;98695.81;;;0.31;84.25
69911;BME280;63555;49.920;17.868;2022-11-15T07:17:04;98696.13;;;0.47;84.48
69911;BME280;63555;49.920;17.868;2022-11-15T07:19:30;98694.72;;;0.61;84.46
69911;BME280;63555;49.920;17.868;2022-11-15T07:21:55;98702.72;;;0.79;84.48
69911;BME280;63555;49.920;17.868;2022-11-15T07:24:21;98697.81;;;0.94;84.54
69911;BME280;63555;49.920;17.868;2022-11-15T07:26:46;98693.75;;;1.11;84.79
69911;BME280;63555;49.920;17.868;2022-11-15T07:29:11;98693.81;;;1.31;84.27
69911;BME280;63555;49.920;17.868;2022-11-15T07:31:37;98690.34;;;1.52;84.61
69911;BME280;63555;49.920;17.868;2022-11-15T07:34:03;98686.91;;;1.74;84.79
69911;BME280;63555;49.920;17.868;2022-11-15T07:36:28;98689.25;;;2.00;84.49
69911;BME280;63555;49.920;17.868;2022-11-15T07:38:53;98683.25;;;2.39;85.32
69911;BME280;63555;49.920;17.868;2022-11-15T07:41:19;98683.75;;;2.86;85.39
69911;BME280;63555;49.920;17.868;2022-11-15T07:43:44;98676.09;;;3.38;85.80
69911;BME280;63555;49.920;17.868;2022-11-15T07:46:09;98673.59;;;3.90;84.59
69911;BME280;63555;49.920;17.868;2022-11-15T07:48:36;98679.63;;;4.42;84.74
69911;BME280;63555;49.920;17.868;2022-11-15T07:51:02;98670.94;;;4.90;84.58
69911;BME280;63555;49.920;17.868;2022-11-15T07:53:27;98667.63;;;5.35;83.89
69911;BME280;63555;49.920;17.868;2022-11-15T07:55:53;98666.19;;;5.75;83.70
69911;BME280;63555;49.920;17.868;2022-11-15T07:58:19;98663.84;;;6.17;83.46
69911;BME280;63555;49.920;17.868;2022-11-15T08:00:44;98660.78;;;6.53;82.56
69911;BME280;63555;49.920;17.868;2022-11-15T08:03:12;98648.22;;;6.86;82.43
69911;BME280;63555;49.920;17.868;2022-11-15T08:05:39;98648.94;;;7.17;81.66
69911;BME280;63555;49.920;17.868;2022-11-15T08:08:05;98649.88;;;7.43;81.44
69911;BME280;63555;49.920;17.868;2022-11-15T08:10:31;98650.06;;;7.66;80.02
69911;BME280;63555;49.920;17.868;2022-11-15T08:13:00;98643.44;;;7.88;79.33
69911;BME280;63555;49.920;17.868;2022-11-15T08:15:26;98646.63;;;8.06;78.99
69911;BME280;63555;49.920;17.868;2022-11-15T08:18:00;98635.81;;;8.23;78.85
69911;BME280;63555;49.920;17.868;2022-11-15T08:20:27;98638.38;;;8.37;77.61
69911;BME280;63555;49.920;17.868;2022-11-15T08:22:59;98638.16;;;8.53;76.99
69911;BME280;63555;49.920;17.868;2022-11-15T08:25:26;98640.75;;;8.66;76.93
69911;BME280;63555;49.920;17.868;2022-11-15T08:27:53;98644.03;;;8.82;76.58
69911;BME280;63555;49.920;17.868;2022-11-15T08:30:18;98630.84;;;8.94;76.41
69911;BME280;63555;49.920;17.868;2022-11-15T08:32:44;98627.97;;;9.10;76.07
69911;BME280;63555;49.920;17.868;2022-11-15T08:35:09;98627.16;;;9.34;75.75
69911;BME280;63555;49.920;17.868;2022-11-15T08:37:35;98627.34;;;9.67;75.47
69911;BME280;63555;49.920;17.868;2022-11-15T08:40:00;98623.31;;;10.20;74.69
69911;BME280;63555;49.920;17.868;2022-11-15T08:42:26;98611.16;;;10.87;74.10
69911;BME280;63555;49.920;17.868;2022-11-15T08:44:51;98613.88;;;11.62;72.45
69911;BME280;63555;49.920;17.868;2022-11-15T08:47:16;98611.84;;;12.39;71.37
69911;BME280;63555;49.920;17.868;2022-11-15T08:49:42;98607.47;;;13.20;69.76
69911;BME280;63555;49.920;17.868;2022-11-15T08:52:07;98612.69;;;13.98;67.84
69911;BME280;63555;49.920;17.868;2022-11-15T08:54:32;98607.09;;;14.68;65.89
69911;BME280;63555;49.920;17.868;2022-11-15T08:56:58;98612.09;;;15.35;64.32
69911;BME280;63555;49.920;17.868;2022-11-15T08:59:23;98602.06;;;15.92;62.26
69911;BME280;63555;49.920;17.868;2022-11-15T09:01:49;98612.91;;;16.42;61.01
69911;BME280;63555;49.920;17.868;2022-11-15T09:04:14;98611.09;;;16.95;59.96
69911;BME280;63555;49.920;17.868;2022-11-15T09:06:39;98613.63;;;17.46;58.92
69911;BME280;63555;49.920;17.868;2022-11-15T09:09:05;98625.72;;;17.99;57.51
69911;BME280;63555;49.920;17.868;2022-11-15T09:11:30;98617.88;;;18.46;56.12
69911;BME280;63555;49.920;17.868;2022-11-15T09:13:56;98621.28;;;18.96;54.67
69911;BME280;63555;49.920;17.868;2022-11-15T09:16:21;98619.75;;;19.40;53.60
69911;BME280;63555;49.920;17.868;2022-11-15T09:18:47;98630.13;;;19.75;51.95
69911;BME280;63555;49.920;17.868;2022-11-15T09:21:12;98620.38;;;19.82;51.18
69911;BME280;63555;49.920;17.868;2022-11-15T09:23:37;98624.66;;;19.68;51.03
69911;BME280;63555;49.920;17.868;2022-11-15T09:26:04;98615.94;;;19.35;50.54
69911;BME280;63555;49.920;17.868;2022-11-15T09:28:31;98612.59;;;18.94;50.88
69911;BME280;63555;49.920;17.868;2022-11-15T09:30:59;98614.00;;;18.57;51.26
69911;BME280;63555;49.920;17.868;2022-11-15T09:33:25;98614.88;;;18.17;51.61
69911;BME280;63555;49.920;17.868;2022-11-15T09:35:51;98604.19;;;17.76;51.58
69911;BME280;63555;49.920;17.868;2022-11-15T09:38:17;98601.72;;;17.33;51.69
69911;BME280;63555;49.920;17.868;2022-11-15T09:40:42;98604.41;;;16.91;52.56
69911;BME280;63555;49.920;17.868;2022-11-15T09:47:05;98601.94;;;16.19;53.89
69911;BME280;63555;49.920;17.868;2022-11-15T09:48:56;98593.09;;;15.93;54.61
69911;BME280;63555;49.920;17.868;2022-11-15T09:51:30;98590.84;;;15.80;54.90
69911;BME280;63555;49.920;17.868;2022-11-15T09:56:37;98578.75;;;15.68;55.42
69911;BME280;63555;49.920;17.868;2022-11-15T10:04:27;98576.66;;;15.44;56.52
69911;BME280;63555;49.920;17.868;2022-11-15T10:07:13;98571.25;;;15.36;57.02
69911;BME280;63555;49.920;17.868;2022-11-15T10:09:47;98566.69;;;15.28;57.36
69911;BME280;63555;49.920;17.868;2022-11-15T10:12:17;98560.47;;;15.20;57.48
69911;BME280;63555;49.920;17.868;2022-11-15T10:14:43;98553.94;;;15.14;57.94
69911;BME280;63555;49.920;17.868;2022-11-15T10:17:18;98553.53;;;15.09;58.33
69911;BME280;63555;49.920;17.868;2022-11-15T10:20:28;98554.44;;;15.00;58.63
69911;BME280;63555;49.920;17.868;2022-11-15T10:23:05;98537.19;;;14.86;58.95
69911;BME280;63555;49.920;17.868;2022-11-15T10:25:33;98541.72;;;14.76;59.14
69911;BME280;63555;49.920;17.868;2022-11-15T10:28:11;98542.72;;;14.65;59.64
69911;BME280;63555;49.920;17.868;2022-11-15T10:30:41;98534.09;;;14.54;59.95
69911;BME280;63555;49.920;17.868;2022-11-15T10:38:52;98528.03;;;14.34;60.47
69911;BME280;63555;49.920;17.868;2022-11-15T10:43:46;98512.97;;;14.25;60.57
69911;BME280;63555;49.920;17.868;2022-11-15T10:46:26;98512.88;;;14.17;60.39
69911;BME280;63555;49.920;17.868;2022-11-15T10:48:51;98507.59;;;14.07;60.39
69911;BME280;63555;49.920;17.868;2022-11-15T10:51:22;98497.31;;;13.94;60.58
69911;BME280;63555;49.920;17.868;2022-11-15T10:53:57;98498.97;;;13.86;60.88
69911;BME280;63555;49.920;17.868;2022-11-15T10:56:25;98494.94;;;13.82;61.11
69911;BME280;63555;49.920;17.868;2022-11-15T10:58:54;98493.25;;;13.81;61.50
69911;BME280;63555;49.920;17.868;2022-11-15T11:01:26;98488.94;;;13.80;61.35
69911;BME280;63555;49.920;17.868;2022-11-15T11:04:06;98488.38;;;13.76;61.17
69911;BME280;63555;49.920;17.868;2022-11-15T11:09:23;98477.81;;;13.66;61.28
69911;BME280;63555;49.920;17.868;2022-11-15T11:11:52;98475.28;;;13.65;61.37
69911;BME280;63555;49.920;17.868;2022-11-15T11:14:21;98467.34;;;13.65;61.29
69911;BME280;63555;49.920;17.868;2022-11-15T11:16:52;98465.53;;;13.65;61.39
69911;BME280;63555;49.920;17.868;2022-11-15T11:22:55;98456.31;;;13.69;61.45
69911;BME280;63555;49.920;17.868;2022-11-15T11:25:19;98447.25;;;13.72;61.30
69911;BME280;63555;49.920;17.868;2022-11-15T11:28:20;98446.13;;;13.75;61.17
69911;BME280;63555;49.920;17.868;2022-11-15T11:30:54;98439.84;;;13.76;61.17
69911;BME280;63555;49.920;17.868;2022-11-15T11:33:31;98443.34;;;13.76;61.12
69911;BME280;63555;49.920;17.868;2022-11-15T11:36:17;98446.81;;;13.77;61.19
69911;BME280;63555;49.920;17.868;2022-11-15T11:49:04;98426.41;;;13.87;60.88
69911;BME280;63555;49.920;17.868;2022-11-15T11:51:38;98423.66;;;13.88;60.70
69911;BME280;63555;49.920;17.868;2022-11-15T11:54:09;98423.22;;;13.93;60.76
69911;BME280;63555;49.920;17.868;2022-11-15T11:56:39;98423.75;;;13.96;60.42
69911;BME280;63555;49.920;17.868;2022-11-15T11:59:16;98427.09;;;13.98;60.47
69911;BME280;63555;49.920;17.868;2022-11-15T12:01:44;98416.34;;;14.00;60.21
69911;BME280;63555;49.920;17.868;2022-11-15T12:04:29;98412.88;;;13.99;60.02
69911;BME280;63555;49.920;17.868;2022-11-15T12:09:41;98400.75;;;13.97;59.75
69911;BME280;63555;49.920;17.868;2022-11-15T12:12:18;98392.94;;;13.95;59.93
69911;BME280;63555;49.920;17.868;2022-11-15T12:17:28;98397.09;;;13.98;59.57
69911;BME280;63555;49.920;17.868;2022-11-15T12:19:58;98401.03;;;13.94;59.42
69911;BME280;63555;49.920;17.868;2022-11-15T12:22:58;98392.81;;;13.87;59.53
69911;BME280;63555;49.920;17.868;2022-11-15T12:28:16;98386.44;;;13.70;59.46
69911;BME280;63555;49.920;17.868;2022-11-15T12:30:55;98384.66;;;13.61;59.73
69911;BME280;63555;49.920;17.868;2022-11-15T12:33:42;98381.75;;;13.55;59.95
69911;BME280;63555;49.920;17.868;2022-11-15T12:36:12;98370.47;;;13.53;59.93
69911;BME280;63555;49.920;17.868;2022-11-15T12:41:32;98373.38;;;13.59;60.06
69911;BME280;63555;49.920;17.868;2022-11-15T12:43:59;98372.34;;;13.70;59.95
69911;BME280;63555;49.920;17.868;2022-11-15T12:49:01;98366.66;;;14.02;59.90
69911;BME280;63555;49.920;17.868;2022-11-15T13:02:28;98355.25;;;15.18;58.44
69911;BME280;63555;49.920;17.868;2022-11-15T13:12:57;98351.72;;;14.91;57.20
69911;BME280;63555;49.920;17.868;2022-11-15T13:17:56;98346.94;;;14.59;57.66
69911;BME280;63555;49.920;17.868;2022-11-15T13:20:28;98345.19;;;14.50;57.92
69911;BME280;63555;49.920;17.868;2022-11-15T13:23:12;98347.75;;;14.42;58.10
69911;BME280;63555;49.920;17.868;2022-11-15T13:33:24;98341.00;;;14.02;58.53
69911;BME280;63555;49.920;17.868;2022-11-15T13:35:56;98350.53;;;13.95;58.75
69911;BME280;63555;49.920;17.868;2022-11-15T13:40:51;98339.72;;;13.69;58.82
69911;BME280;63555;49.920;17.868;2022-11-15T13:43:27;98330.88;;;13.51;59.10
69911;BME280;63555;49.920;17.868;2022-11-15T13:46:25;98333.31;;;13.35;59.28
69911;BME280;63555;49.920;17.868;2022-11-15T13:48:54;98328.47;;;13.21;59.60
69911;BME280;63555;49.920;17.868;2022-11-15T13:51:42;98326.91;;;13.08;60.04
69911;BME280;63555;49.920;17.868;2022-11-15T13:56:38;98318.97;;;12.89;60.35
69911;BME280;63555;49.920;17.868;2022-11-15T13:59:24;98323.44;;;12.79;60.62
69911;BME280;63555;49.920;17.868;2022-11-15T14:01:51;98330.41;;;12.70;61.05
69911;BME280;63555;49.920;17.868;2022-11-15T14:04:20;98330.28;;;12.62;61.08
69911;BME280;63555;49.920;17.868;2022-11-15T14:06:51;98317.91;;;12.53;60.87
69911;BME280;63555;49.920;17.868;2022-11-15T14:09:30;98320.41;;;12.45;61.35
69911;BME280;63555;49.920;17.868;2022-11-15T14:11:58;98306.91;;;12.38;61.41
69911;BME280;63555;49.920;17.868;2022-11-15T14:14:26;98302.16;;;12.32;61.74
69911;BME280;63555;49.920;17.868;2022-11-15T14:16:57;98303.56;;;12.27;61.95
69911;BME280;63555;49.920;17.868;2022-11-15T14:24:34;98299.88;;;12.08;62.22
69911;BME280;63555;49.920;17.868;2022-11-15T14:27:25;98290.81;;;12.01;62.42
69911;BME280;63555;49.920;17.868;2022-11-15T14:29:51;98297.75;;;11.93;62.38
69911;BME280;63555;49.920;17.868;2022-11-15T14:32:22;98290.66;;;11.84;62.65
69911;BME280;63555;49.920;17.868;2022-11-15T14:34:53;98293.09;;;11.75;62.55
69911;BME280;63555;49.920;17.868;2022-11-15T14:37:23;98281.53;;;11.67;62.56
69911;BME280;63555;49.920;17.868;2022-11-15T14:39:50;98277.06;;;11.58;62.93
69911;BME280;63555;49.920;17.868;2022-11-15T14:42:15;98274.97;;;11.52;63.18
69911;BME280;63555;49.920;17.868;2022-11-15T14:44:41;98275.34;;;11.47;63.44
69911;BME280;63555;49.920;17.868;2022-11-15T14:47:06;98277.56;;;11.42;63.42
69911;BME280;63555;49.920;17.868;2022-11-15T14:49:32;98276.16;;;11.38;63.85
69911;BME280;63555;49.920;17.868;2022-11-15T14:51:57;98272.94;;;11.34;63.94
69911;BME280;63555;49.920;17.868;2022-11-15T14:54:24;98274.31;;;11.29;64.28
69911;BME280;63555;49.920;17.868;2022-11-15T14:56:49;98267.59;;;11.25;64.18
69911;BME280;63555;49.920;17.868;2022-11-15T14:59:14;98268.84;;;11.21;64.29
69911;BME280;63555;49.920;17.868;2022-11-15T15:01:40;98264.66;;;11.18;64.25
69911;BME280;63555;49.920;17.868;2022-11-15T15:04:05;98264.91;;;11.15;64.51
69911;BME280;63555;49.920;17.868;2022-11-15T15:06:30;98253.78;;;11.11;64.75
69911;BME280;63555;49.920;17.868;2022-11-15T15:08:56;98264.47;;;11.10;64.68
69911;BME280;63555;49.920;17.868;2022-11-15T15:11:27;98259.59;;;11.05;64.92
69911;BME280;63555;49.920;17.868;2022-11-15T15:13:53;98264.16;;;11.03;64.71
69911;BME280;63555;49.920;17.868;2022-11-15T15:16:22;98264.44;;;11.00;64.86
69911;BME280;63555;49.920;17.868;2022-11-15T15:18:48;98263.00;;;10.96;65.11